Dades meteomassalio
Diari Summary for Gener 8, 2018 Units:  Metric    English   Both
« Previous Day
Next Day »
Diari Semanal Mensual Anual Personalitzat
  Maxima: Minima: Mijana:
Temperatura: -17.8 °C -18.4 °C -16.6 °C
Rosada: -17.8 °C -18.9 °C -17.3 °C
Humitat: Humidity % 82 % 90 %
Velocitat del vent: 0 km/h 0 km/h 4.5 km/h
Racha vent: 0 km/h - -
Vent:- - NW
Pressio: 0 hPa 34256.2 hPa -
Pluja: 7.62 mm    
Historical Graphs
 
 
Tabular Data for Gener 8, 2018
Time Temperature Dew Point Pressure Wind Wind Speed Wind Gust Humidity Rainfall Rate (Hourly) solar Conditions
-17.8 °C -17.8 °C 0 hPa Calm     Humidity % 0 mm SolarRadiationWatts/m^2 W/m2 Conditions
00:00 -17.8 °C -18.3 °C 34256.2 hPa Calm     93 % 0 mm 0.0 W/m2 CLR
00:01 -17.8 °C -18.3 °C 34256.2 hPa Calm     93 % 0 mm 0.0 W/m2 RA
00:06 -17.8 °C -18.3 °C 34256.2 hPa Calm     93 % 0 mm 0.0 W/m2 CLR
00:11 -17.8 °C -18.3 °C 34256.2 hPa Calm     93 % 0 mm 0.0 W/m2 CLR
00:15 -17.8 °C -18.3 °C 34256.2 hPa Calm     93 % 0 mm 0.0 W/m2 CLR
00:20 -17.8 °C -18.3 °C 34256.2 hPa Calm     93 % 0 mm 0.0 W/m2 CLR
00:23 -17.8 °C -18.3 °C 34256.2 hPa Calm     93 % 0 mm 0.0 W/m2 CLR
00:28 -17.8 °C -18.3 °C 34256.2 hPa Calm     93 % 0 mm 0.0 W/m2 CLR
00:29 -17.8 °C -18.3 °C 34256.2 hPa Calm     93 % 0 mm 0.0 W/m2 CLR
00:34 -17.8 °C -18.3 °C 34256.2 hPa Calm     93 % 0 mm 0.0 W/m2 CLR
00:35 -17.8 °C -18.3 °C 34256.2 hPa Calm     93 % 0 mm 0.0 W/m2 CLR
00:40 -17.8 °C -18.3 °C 34256.2 hPa Calm     93 % 0 mm 0.0 W/m2 CLR
00:44 -17.8 °C -18.3 °C 34256.2 hPa Calm     93 % 0 mm 0.0 W/m2 CLR
00:49 -17.8 °C -18.3 °C 34256.2 hPa Calm     93 % 0 mm 0.0 W/m2 CLR
00:53 -17.8 °C -18.3 °C 34269.7 hPa Calm     93 % 0 mm 0.0 W/m2 CLR
00:58 -17.8 °C -18.3 °C 34256.2 hPa Calm     93 % 0 mm 0.0 W/m2 CLR
00:59 -17.8 °C -18.3 °C 34256.2 hPa Calm     93 % 0 mm 0.0 W/m2 CLR
01:04 -17.8 °C -18.3 °C 34256.2 hPa Calm     93 % 0 mm 0.0 W/m2 CLR
01:09 -17.8 °C -18.3 °C 34256.2 hPa Calm     93 % 0 mm 0.0 W/m2 CLR
01:14 -17.8 °C -18.3 °C 34256.2 hPa Calm     93 % 0 mm 0.0 W/m2 CLR
01:19 -17.8 °C -18.3 °C 34256.2 hPa Calm     93 % 0 mm 0.0 W/m2 CLR
01:21 -17.8 °C -18.3 °C 34256.2 hPa Calm     93 % 0 mm 0.0 W/m2 CLR
01:22 -17.8 °C -18.3 °C 34256.2 hPa Calm     93 % 0 mm 0.0 W/m2 CLR
01:27 -17.8 °C -18.3 °C 34256.2 hPa Calm     93 % 0 mm 0.0 W/m2 CLR
01:32 -17.8 °C -18.3 °C 34269.7 hPa Calm     93 % 0 mm 0.0 W/m2 CLR
01:37 -17.8 °C -18.3 °C 34269.7 hPa Calm     93 % 0 mm 0.0 W/m2 CLR
01:38 -17.8 °C -18.3 °C 34269.7 hPa Calm     93 % 0 mm 0.0 W/m2 CLR
01:43 -17.8 °C -18.3 °C 34269.7 hPa Calm     93 % 0 mm 0.0 W/m2 CLR
01:48 -17.8 °C -18.3 °C 34269.7 hPa Calm     93 % 0 mm 0.0 W/m2 CLR
01:54 -17.8 °C -18.3 °C 34279.9 hPa Calm     93 % 0 mm 0.0 W/m2 CLR
01:59 -17.8 °C -18.3 °C 34279.9 hPa Calm     93 % 0 mm 0.0 W/m2 CLR
02:04 -17.8 °C -18.3 °C 34279.9 hPa Calm     93 % 0 mm 0.0 W/m2 CLR
02:08 -17.8 °C -18.3 °C 34279.9 hPa Calm     93 % 0 mm 0.0 W/m2 CLR
02:13 -17.8 °C -18.3 °C 34279.9 hPa Calm     93 % 0 mm 0.0 W/m2 CLR
02:18 -17.8 °C -18.2 °C 34293.4 hPa Calm     94 % 0 mm 0.0 W/m2 CLR
02:23 -17.8 °C -18.2 °C 34293.4 hPa Calm     94 % 0 mm 0.0 W/m2 CLR
02:29 -17.8 °C -18.2 °C 34293.4 hPa Calm     94 % 0 mm 0.0 W/m2 CLR
02:34 -17.8 °C -18.3 °C 34293.4 hPa Calm     93 % 0 mm 0.0 W/m2 CLR
02:39 -17.8 °C -18.3 °C 34293.4 hPa Calm     93 % 0 mm 0.0 W/m2 CLR
02:44 -18.1 °C -18.7 °C 34293.4 hPa Calm     93 % 0 mm 0.0 W/m2 CLR
02:49 -17.8 °C -18.3 °C 34293.4 hPa Calm     93 % 0 mm 0.0 W/m2 CLR
02:53 -18.1 °C -18.6 °C 34303.6 hPa Calm     94 % 0 mm 0.0 W/m2 CLR
02:58 -18.1 °C -18.6 °C 34303.6 hPa Calm     94 % 0 mm 0.0 W/m2 CLR
03:03 -18.1 °C -18.6 °C 34303.6 hPa Calm     94 % 0 mm 0.0 W/m2 CLR
03:08 -18.1 °C -18.7 °C 34303.6 hPa Calm     93 % 0 mm 0.0 W/m2 CLR
03:13 -18.1 °C -18.6 °C 34303.6 hPa Calm     94 % 0 mm 0.0 W/m2 CLR
03:18 -18.1 °C -18.7 °C 34303.6 hPa Calm     93 % 0 mm 0.0 W/m2 CLR
03:22 -18.1 °C -18.7 °C 34303.6 hPa Calm     93 % 0 mm 0.0 W/m2 CLR
03:25 -18.1 °C -18.7 °C 34303.6 hPa Calm     93 % 0 mm 0.0 W/m2 CLR
03:30 -18.1 °C -18.7 °C 34303.6 hPa Calm     93 % 0 mm 0.0 W/m2 CLR
03:35 -18.1 °C -18.7 °C 34303.6 hPa Calm     93 % 0 mm 0.0 W/m2 CLR
03:40 -18.1 °C -18.6 °C 34303.6 hPa Calm     94 % 0 mm 0.0 W/m2 CLR
03:45 -18.1 °C -18.7 °C 34303.6 hPa Calm     93 % 0 mm 0.0 W/m2 CLR
03:50 -18.1 °C -18.7 °C 34303.6 hPa Calm     93 % 0 mm 0.0 W/m2 CLR
03:56 -18.1 °C -18.7 °C 34303.6 hPa Calm     93 % 0 mm 0.0 W/m2 CLR
04:01 -18.1 °C -18.7 °C 34313.7 hPa Calm     93 % 0 mm 0.0 W/m2 CLR
04:03 -18.1 °C -18.7 °C 34313.7 hPa Calm     93 % 0 mm 0.0 W/m2 CLR
04:09 -18.1 °C -18.7 °C 34303.6 hPa Calm     93 % 0 mm 0.0 W/m2 CLR
04:14 -18.1 °C -18.7 °C 34303.6 hPa Calm     93 % 0 mm 0.0 W/m2 CLR
04:19 -18.1 °C -18.7 °C 34303.6 hPa Calm     93 % 0 mm 0.0 W/m2 CLR
04:26 -18.1 °C -18.7 °C 34313.7 hPa Calm     93 % 0 mm 0.0 W/m2 CLR
04:41 -18.1 °C -18.7 °C 34313.7 hPa Calm     93 % 0 mm 0.0 W/m2 CLR
04:59 -17.8 °C -18.3 °C 34303.6 hPa Calm     93 % 0 mm 0.0 W/m2 CLR
05:12 -17.8 °C -18.2 °C 34313.7 hPa Calm     94 % 0 mm 0.0 W/m2 CLR
05:30 -17.8 °C -18.2 °C 34313.7 hPa Calm     94 % 0 mm 0.0 W/m2 CLR
05:37 -17.8 °C -18.2 °C 34313.7 hPa Calm     94 % 0 mm 0.0 W/m2 CLR
05:51 -17.4 °C -17.9 °C 34327.3 hPa Calm     94 % 0 mm 0.0 W/m2 CLR
06:19 -17.4 °C -17.9 °C 34327.3 hPa Calm     94 % 0 mm 0.0 W/m2 CLR
06:29 -17.2 °C -17.6 °C 34327.3 hPa Calm     94 % 0 mm 0.0 W/m2 CLR
06:37 -17.2 °C -17.6 °C 34327.3 hPa Calm     94 % 0 mm 0.0 W/m2 CLR
06:46 -17.2 °C -17.6 °C 34337.4 hPa Calm     94 % 0 mm 0.0 W/m2 CLR
07:14 -17.2 °C -17.6 °C 34337.4 hPa Calm     94 % 0 mm 0.0 W/m2 CLR
07:26 -16.8 °C -17.3 °C 34337.4 hPa Calm     94 % 0 mm 0.0 W/m2 CLR
07:58 -16.8 °C -17.3 °C 34347.6 hPa Calm     94 % 0 mm 0.0 W/m2 CLR
09:19 -16.6 °C -17.1 °C 34371.3 hPa Calm     94 % 0 mm 25.0 W/m2 BKN
09:41 -16.2 °C -16.7 °C 34384.8 hPa Calm     94 % 0 mm 33.0 W/m2 BKN
09:47 -16.2 °C -16.7 °C 34384.8 hPa Calm     94 % 0 mm 35.0 W/m2 BKN
09:53 -16.2 °C -16.7 °C 34384.8 hPa Calm     94 % 0 mm 39.0 W/m2 BKN
10:03 -16.2 °C -16.7 °C 34395 hPa Calm     94 % 0 mm 51.0 W/m2 BKN
10:13 -15.9 °C -16.4 °C 34395 hPa Calm     94 % 0 mm 62.0 W/m2 SCT
10:18 -15.9 °C -16.4 °C 34395 hPa Calm     94 % 0 mm 65.0 W/m2 SCT
10:23 -15.9 °C -16.4 °C 34395 hPa Calm     94 % 0 mm 62.0 W/m2 SCT
10:24 -15.9 °C -16.4 °C 34395 hPa Calm     94 % 0 mm 62.0 W/m2 SCT
10:29 -15.9 °C -16.4 °C 34395 hPa Calm     94 % 0 mm 60.0 W/m2 SCT
10:30 -15.9 °C -16.4 °C 34395 hPa Calm     94 % 0 mm 60.0 W/m2 SCT
10:35 -15.9 °C -16.4 °C 34405.1 hPa Calm     94 % 0 mm 63.0 W/m2 SCT
10:36 -15.9 °C -16.4 °C 34405.1 hPa Calm     94 % 0 mm 62.0 W/m2 SCT
10:38 -15.9 °C -16.4 °C 34405.1 hPa Calm     94 % 0 mm 60.0 W/m2 SCT
10:43 -15.9 °C -16.4 °C 34405.1 hPa Calm     94 % 0 mm 69.0 W/m2 SCT
10:44 -15.9 °C -16.4 °C 34405.1 hPa Calm     94 % 0 mm 72.0 W/m2 SCT
10:49 -15.6 °C -16.1 °C 34405.1 hPa NNW 17.9 km/h 17.9 km/h 94 % 0 mm 74.0 W/m2 FEW
10:52 -15.6 °C -16.1 °C 34405.1 hPa NNW 15 km/h 15 km/h 94 % 0 mm 63.0 W/m2 FEW
10:57 -15.6 °C -16.1 °C 34405.1 hPa NW 15 km/h 15 km/h 94 % 0 mm 67.0 W/m2 FEW
10:58 -15.6 °C -16.1 °C 34405.1 hPa NNW 11.9 km/h 11.9 km/h 94 % 0 mm 69.0 W/m2 FEW
11:03 -15.3 °C -15.8 °C 34405.1 hPa Calm     94 % 0 mm 76.0 W/m2 FEW
11:08 -15.3 °C -15.8 °C 34405.1 hPa Calm     94 % 0 mm 70.0 W/m2 FEW
11:13 -15.3 °C -15.9 °C 34418.7 hPa Calm     93 % 0 mm 63.0 W/m2 FEW
11:17 -15.3 °C -15.9 °C 34418.7 hPa Calm     93 % 0 mm 62.0 W/m2 FEW
11:20 -15.3 °C -15.9 °C 34405.1 hPa NW 15 km/h 15 km/h 93 % 0 mm 67.0 W/m2 SCT
11:25 -15.3 °C -15.9 °C 34418.7 hPa Calm     93 % 0 mm 86.0 W/m2 FEW
11:31 -15.3 °C -15.9 °C 34418.7 hPa Calm     93 % 0 mm 100.0 W/m2 FEW
11:36 -15.3 °C -15.9 °C 34405.1 hPa Calm     93 % 0 mm 121.0 W/m2 CLR
11:41 -15.3 °C -15.9 °C 34405.1 hPa Calm     93 % 0 mm 142.0 W/m2 CLR
11:46 -15 °C -15.6 °C 34405.1 hPa Calm     93 % 0 mm 114.0 W/m2 CLR
11:52 -15 °C -15.7 °C 34395 hPa Calm     92 % 0 mm 88.0 W/m2 CLR
11:54 -15 °C -15.7 °C 34405.1 hPa Calm     92 % 0 mm 97.0 W/m2 CLR
12:00 -15.3 °C -15.9 °C 34395 hPa Calm     92 % 0 mm 132.0 W/m2 CLR
12:05 -15 °C -15.7 °C 34395 hPa Calm     92 % 0 mm 132.0 W/m2 CLR
12:11 -15 °C -15.7 °C 34395 hPa NNW 9 km/h 9 km/h 91 % 0 mm 118.0 W/m2 CLR
12:17 -15 °C -15.7 °C 34405.1 hPa NNW 3.1 km/h 3.1 km/h 91 % 0 mm 111.0 W/m2 CLR
12:22 -15 °C -15.7 °C 34405.1 hPa Calm     91 % 0 mm 114.0 W/m2 CLR
12:27 -15 °C -15.7 °C 34405.1 hPa Calm     91 % 0 mm 114.0 W/m2 CLR
12:34 -15 °C -15.8 °C 34405.1 hPa Calm     90 % 0 mm 141.0 W/m2 CLR
12:39 -15 °C -15.8 °C 34395 hPa Calm     90 % 0 mm 134.0 W/m2 CLR
12:45 -15 °C -15.8 °C 34405.1 hPa Calm     90 % 0 mm 125.0 W/m2 CLR
12:50 -14.7 °C -15.5 °C 34395 hPa Calm     90 % 0 mm 141.0 W/m2 CLR
12:52 -14.7 °C -15.5 °C 34405.1 hPa Calm     90 % 0 mm 132.0 W/m2 CLR
12:57 -14.7 °C -15.6 °C 34405.1 hPa NW 9 km/h 9 km/h 89 % 0 mm 149.0 W/m2 CLR
13:02 -15 °C -15.9 °C 34395 hPa NW 6 km/h 6 km/h 89 % 0 mm 165.0 W/m2 CLR
13:04 -15 °C -15.9 °C 34395 hPa NW 6 km/h 6 km/h 89 % 0 mm 167.0 W/m2 CLR
13:09 -14.7 °C -15.6 °C 34395 hPa Calm     89 % 0 mm 165.0 W/m2 CLR
13:15 -14.7 °C -15.6 °C 34395 hPa NW 9 km/h 9 km/h 89 % 0 mm 172.0 W/m2 CLR
13:21 -14.7 °C -15.7 °C 34395 hPa NW 3.1 km/h 3.1 km/h 88 % 0 mm 183.0 W/m2 CLR
13:23 -14.7 °C -15.7 °C 34395 hPa NNW 9 km/h 9 km/h 88 % 0 mm 179.0 W/m2 CLR
13:28 -14.7 °C -15.6 °C 34384.8 hPa NNW 6 km/h   89 % 0 mm 195.0 W/m2 CLR
13:34 -14.7 °C -15.7 °C 34384.8 hPa NNW 9 km/h 9 km/h 88 % 0 mm 206.0 W/m2 CLR
13:39 -14.7 °C -15.6 °C 34384.8 hPa NNW 25.9 km/h 25.9 km/h 89 % 0 mm 211.0 W/m2 CLR
13:42 -14.7 °C -15.7 °C 34384.8 hPa NNW 20.9 km/h 20.9 km/h 88 % 0 mm 230.0 W/m2 CLR
13:47 -14.7 °C -15.7 °C 34384.8 hPa North 20.8 km/h 20.8 km/h 88 % 0 mm 257.0 W/m2 CLR
13:50 -14.7 °C -15.7 °C 34384.8 hPa NNW 23.8 km/h   88 % 0 mm 278.0 W/m2 CLR
13:55 -14.4 °C -15.5 °C 34384.8 hPa NNE 20.8 km/h 20.8 km/h 87 % 0 mm 237.0 W/m2 CLR
13:57 -14.4 °C -15.4 °C 34384.8 hPa NNE 20.9 km/h 20.9 km/h 88 % 0 mm 227.0 W/m2 CLR
14:02 -14.4 °C -15.5 °C 34384.8 hPa NNW 20.9 km/h 20.9 km/h 87 % 0 mm 220.0 W/m2 CLR
14:06 -14.4 °C -15.4 °C 34384.8 hPa North 20.9 km/h 20.9 km/h 88 % 0 mm 185.0 W/m2 CLR
14:11 -14.4 °C -15.4 °C 34384.8 hPa NNW 26.9 km/h 26.9 km/h 88 % 0 mm 223.0 W/m2 CLR
14:16 -14.4 °C -15.5 °C 34384.8 hPa North 29.8 km/h 29.8 km/h 87 % 0 mm 195.0 W/m2 CLR
14:22 -14.4 °C -15.5 °C 34384.8 hPa North 23.8 km/h 23.8 km/h 87 % 0 mm 243.0 W/m2 CLR
14:30 -14.4 °C -15.4 °C 34371.3 hPa NW 23.3 km/h 23.3 km/h 88 % 0 mm 199.0 W/m2 CLR
14:36 -14.4 °C -15.4 °C 34371.3 hPa WNW 17.9 km/h 17.9 km/h 88 % 0 mm 302.0 W/m2 CLR
14:41 -14.7 °C -15.7 °C 34371.3 hPa NNW 26.9 km/h 26.9 km/h 88 % 0 mm 262.0 W/m2 CLR
14:47 -14.4 °C -15.4 °C 34371.3 hPa NW 20.9 km/h 20.9 km/h 88 % 0 mm 213.0 W/m2 CLR
14:49 -14.4 °C -15.4 °C 34371.3 hPa NNW 26.9 km/h 26.9 km/h 88 % 0 mm 234.0 W/m2 CLR
14:50 -14.4 °C -15.4 °C 34371.3 hPa NNW 26.9 km/h 26.9 km/h 88 % 0 mm 246.0 W/m2 CLR
14:58 -14.4 °C -15.4 °C 34371.3 hPa NNW 17.9 km/h 17.9 km/h 88 % 0 mm 241.0 W/m2 CLR
14:59 -14.4 °C -15.4 °C 34371.3 hPa NW 29.8 km/h 29.8 km/h 88 % 0 mm 243.0 W/m2 CLR
15:05 -14.4 °C -15.4 °C 34371.3 hPa North 26.9 km/h 26.9 km/h 88 % 0 mm 258.0 W/m2 CLR
15:06 -14.4 °C -15.4 °C 34371.3 hPa NNW 25.9 km/h 25.9 km/h 88 % 0 mm 316.0 W/m2 CLR
15:12 -14.4 °C -15.4 °C 34371.3 hPa WNW 29.8 km/h 29.8 km/h 88 % 0 mm 272.0 W/m2 CLR
15:17 -14.4 °C -15.4 °C 34371.3 hPa NNW 28.5 km/h 28.5 km/h 88 % 7.62 mm 209.0 W/m2 RA
15:23 -14.4 °C -15.4 °C 34371.3 hPa North 26.9 km/h 26.9 km/h 88 % 7.62 mm 320.0 W/m2 CLR
15:26 -14.4 °C -15.4 °C 34371.3 hPa NW 26.9 km/h 26.9 km/h 88 % 7.62 mm 313.0 W/m2 CLR
15:33 -14.1 °C -15.2 °C 34371.3 hPa NNW 26.9 km/h 26.9 km/h 87 % 7.62 mm 276.0 W/m2 CLR
15:34 -14.1 °C -15.2 °C 34371.3 hPa NW 26.9 km/h 26.9 km/h 87 % 7.62 mm 276.0 W/m2 CLR
15:39 -14.1 °C -15.4 °C 34371.3 hPa NNW 29.8 km/h 29.8 km/h 85 % 7.62 mm 237.0 W/m2 CLR
15:44 -14.1 °C -15.4 °C 34384.8 hPa North 25.9 km/h 25.9 km/h 85 % 7.62 mm 183.0 W/m2 CLR
15:50 -14.1 °C -15.4 °C 34384.8 hPa NNW 29.8 km/h 29.8 km/h 85 % 7.62 mm 172.0 W/m2 CLR
15:57 -14.1 °C -15.4 °C 34384.8 hPa NNW 26.9 km/h 26.9 km/h 84 % 7.62 mm 209.0 W/m2 CLR
16:03 -14.1 °C -15.4 °C 34384.8 hPa NW 20.9 km/h 20.9 km/h 84 % 7.62 mm 213.0 W/m2 CLR
16:09 -14.1 °C -15.6 °C 34384.8 hPa NNW 18.2 km/h 18.2 km/h 83 % 7.62 mm 169.0 W/m2 CLR
16:17 -14.1 °C -15.6 °C 34395 hPa NNW 26.9 km/h 26.9 km/h 83 % 0 mm 156.0 W/m2 CLR
16:20 -14.4 °C -15.9 °C 34395 hPa NW 20.9 km/h 20.9 km/h 83 % 0 mm 141.0 W/m2 CLR
16:25 -14.4 °C -15.9 °C 34395 hPa NW 17.9 km/h 17.9 km/h 83 % 0 mm 155.0 W/m2 CLR
16:30 -14.4 °C -15.9 °C 34395 hPa NW 15.6 km/h 15.6 km/h 83 % 0 mm 130.0 W/m2 CLR
16:36 -14.4 °C -15.9 °C 34395 hPa NNW 15 km/h 15 km/h 83 % 0 mm 118.0 W/m2 CLR
16:41 -14.4 °C -15.9 °C 34395 hPa Calm     83 % 0 mm 95.0 W/m2 CLR
16:45 -14.4 °C -15.9 °C 34395 hPa WNW 15 km/h 15 km/h 83 % 0 mm 90.0 W/m2 CLR
16:51 -14.4 °C -15.9 °C 34384.8 hPa Calm     82 % 0 mm 79.0 W/m2 FEW
16:56 -14.4 °C -15.9 °C 34384.8 hPa Calm     83 % 0 mm 70.0 W/m2 FEW
17:00 -14.4 °C -15.9 °C 34384.8 hPa Calm     83 % 0 mm 67.0 W/m2 FEW
17:04 -14.4 °C -15.9 °C 34395 hPa Calm     83 % 0 mm 62.0 W/m2 SCT
17:09 -14.4 °C -15.9 °C 34395 hPa Calm     83 % 0 mm 53.0 W/m2 SCT
17:19 -14.7 °C -16.2 °C 34395 hPa Calm     83 % 0 mm 39.0 W/m2 BKN
17:25 -14.7 °C -16.1 °C 34384.8 hPa Calm     84 % 0 mm 28.0 W/m2 BKN
17:30 -14.7 °C -16.1 °C 34384.8 hPa WNW 6 km/h 6 km/h 84 % 0 mm 21.0 W/m2 BKN
17:33 -14.7 °C -16.1 °C 34384.8 hPa West 6 km/h 6 km/h 84 % 0 mm 18.0 W/m2 BKN
17:38 -14.7 °C -16.1 °C 34384.8 hPa West 9 km/h 9 km/h 84 % 0 mm 12.0 W/m2 BKN
17:40 -14.7 °C -16 °C 34384.8 hPa WNW 10.3 km/h 10.3 km/h 85 % 0 mm 11.0 W/m2 BKN
17:42 -15 °C -16.3 °C 34384.8 hPa West 9 km/h 9 km/h 85 % 0 mm 9.0 W/m2 BKN
17:45 -15 °C -16.3 °C 34384.8 hPa Calm     85 % 0 mm 5.0 W/m2 BKN
17:46 -15 °C -16.3 °C 34384.8 hPa Calm     85 % 0 mm 5.0 W/m2 BKN
17:51 -15.3 °C -16.5 °C 34384.8 hPa Calm     86 % 0 mm 0.0 W/m2 OVC
17:56 -15.3 °C -16.5 °C 34384.8 hPa Calm     86 % 0 mm 0.0 W/m2 OVC
18:01 -15.6 °C -16.8 °C 34395 hPa Calm     86 % 0 mm 0.0 W/m2 CLR
18:06 -15.9 °C -17 °C 34395 hPa Calm     87 % 0 mm 0.0 W/m2 CLR
18:11 -15.9 °C -17 °C 34395 hPa Calm     87 % 0 mm 0.0 W/m2 CLR
18:15 -16.2 °C -17.3 °C 34395 hPa WNW 5.1 km/h 5.1 km/h 87 % 0 mm 0.0 W/m2 CLR
18:20 -16.2 °C -17.3 °C 34395 hPa WNW 9 km/h 9 km/h 87 % 0 mm 0.0 W/m2 CLR
18:25 -16.6 °C -17.6 °C 34395 hPa WNW 10.3 km/h 10.3 km/h 88 % 0 mm 0.0 W/m2 CLR
18:30 -16.6 °C -17.6 °C 34395 hPa WNW 9 km/h 9 km/h 88 % 0 mm 0.0 W/m2 CLR
18:32 -16.8 °C -17.8 °C 34395 hPa Calm     88 % 0 mm 0.0 W/m2 CLR
18:37 -16.8 °C -17.9 °C 34405.1 hPa Calm     87 % 0 mm 0.0 W/m2 CLR
18:40 -16.8 °C -17.9 °C 34405.1 hPa Calm     87 % 0 mm 0.0 W/m2 CLR
18:44 -16.8 °C -17.8 °C 34405.1 hPa Calm     88 % 0 mm 0.0 W/m2 CLR
18:46 -16.8 °C -17.8 °C 34405.1 hPa Calm     88 % 0 mm 0.0 W/m2 CLR
18:49 -16.8 °C -17.8 °C 34405.1 hPa Calm     88 % 0 mm 0.0 W/m2 CLR
18:53 -16.8 °C -17.8 °C 34405.1 hPa Calm     88 % 0 mm 0.0 W/m2 CLR
18:58 -16.8 °C -17.7 °C 34405.1 hPa WNW 9 km/h 9 km/h 89 % 0 mm 0.0 W/m2 CLR
18:59 -16.8 °C -17.7 °C 34405.1 hPa WNW 9 km/h 9 km/h 89 % 0 mm 0.0 W/m2 CLR
19:01 -17.2 °C -18.1 °C 34405.1 hPa Calm     89 % 0 mm 0.0 W/m2 CLR
19:07 -17.2 °C -18.1 °C 34405.1 hPa Calm     89 % 0 mm 0.0 W/m2 CLR
19:09 -17.2 °C -18.1 °C 34418.7 hPa Calm     89 % 0 mm 0.0 W/m2 CLR
19:11 -17.2 °C -18.1 °C 34418.7 hPa Calm     89 % 0 mm 0.0 W/m2 CLR
19:15 -17.2 °C -18.1 °C 34418.7 hPa Calm     89 % 0 mm 0.0 W/m2 CLR
19:20 -17.2 °C -17.9 °C 34418.7 hPa Calm     90 % 0 mm 0.0 W/m2 CLR
19:24 -17.2 °C -17.9 °C 34418.7 hPa Calm     90 % 0 mm 0.0 W/m2 CLR
19:29 -17.2 °C -17.9 °C 34418.7 hPa Calm     90 % 0 mm 0.0 W/m2 CLR
19:34 -17.4 °C -18.3 °C 34418.7 hPa Calm     90 % 0 mm 0.0 W/m2 CLR
19:36 -17.4 °C -18.3 °C 34418.7 hPa Calm     90 % 0 mm 0.0 W/m2 CLR
19:41 -17.4 °C -18.2 °C 34418.7 hPa Calm     91 % 0 mm 0.0 W/m2 CLR
19:44 -17.8 °C -18.5 °C 34428.8 hPa Calm     91 % 0 mm 0.0 W/m2 CLR
19:48 -17.8 °C -18.5 °C 34428.8 hPa Calm     91 % 0 mm 0.0 W/m2 CLR
19:50 -17.8 °C -18.5 °C 34428.8 hPa Calm     91 % 0 mm 0.0 W/m2 CLR
19:55 -17.8 °C -18.5 °C 34428.8 hPa Calm     91 % 0 mm 0.0 W/m2 CLR
19:58 -17.8 °C -18.5 °C 34428.8 hPa Calm     91 % 0 mm 0.0 W/m2 CLR
20:03 -17.8 °C -18.5 °C 34428.8 hPa Calm     91 % 0 mm 0.0 W/m2 CLR
20:08 -17.8 °C -18.5 °C 34428.8 hPa Calm     91 % 0 mm 0.0 W/m2 CLR
20:12 -18.1 °C -18.8 °C 34428.8 hPa Calm     91 % 0 mm 0.0 W/m2 CLR
20:17 -18.1 °C -18.8 °C 34428.8 hPa Calm     91 % 0 mm 0.0 W/m2 CLR
20:22 -18.1 °C -18.7 °C 34428.8 hPa Calm     92 % 0 mm 0.0 W/m2 CLR
20:24 -18.1 °C -18.7 °C 34428.8 hPa Calm     92 % 0 mm 0.0 W/m2 CLR
20:29 -18.1 °C -18.7 °C 34428.8 hPa Calm     92 % 0 mm 0.0 W/m2 CLR
20:30 -18.1 °C -18.7 °C 34428.8 hPa Calm     92 % 0 mm 0.0 W/m2 CLR
20:35 -18.1 °C -18.8 °C 34428.8 hPa Calm     91 % 0 mm 0.0 W/m2 CLR
20:37 -18.1 °C -18.7 °C 34428.8 hPa Calm     92 % 0 mm 0.0 W/m2 CLR
20:42 -18.1 °C -18.7 °C 34428.8 hPa Calm     92 % 0 mm 0.0 W/m2 CLR
20:47 -18.1 °C -18.7 °C 34428.8 hPa Calm     92 % 0 mm 0.0 W/m2 CLR
20:48 -18.1 °C -18.7 °C 34428.8 hPa Calm     92 % 0 mm 0.0 W/m2 CLR
20:53 -17.8 °C -18.4 °C 34428.8 hPa Calm     92 % 0 mm 0.0 W/m2 CLR
20:58 -17.8 °C -18.4 °C 34428.8 hPa Calm     92 % 0 mm 0.0 W/m2 CLR
21:03 -17.8 °C -18.4 °C 34442.4 hPa Calm     92 % 0 mm 0.0 W/m2 CLR
21:09 -17.8 °C -18.4 °C 34442.4 hPa Calm     92 % 0 mm 0.0 W/m2 CLR
21:19 -17.8 °C -18.4 °C 34442.4 hPa Calm     92 % 0 mm 0.0 W/m2 CLR
21:24 -18.1 °C -18.7 °C 34442.4 hPa Calm     92 % 0 mm 0.0 W/m2 CLR
21:31 -18.1 °C -18.7 °C 34442.4 hPa Calm     92 % 0 mm 0.0 W/m2 CLR
21:36 -18.1 °C -18.7 °C 34452.6 hPa Calm     92 % 0 mm 0.0 W/m2 CLR
21:51 -18.1 °C -18.7 °C 34452.6 hPa Calm     92 % 0 mm 0.0 W/m2 CLR
22:06 -18.1 °C -18.7 °C 34452.6 hPa West 6 km/h 6 km/h 93 % 0 mm 0.0 W/m2 CLR
22:14 -18.4 °C -18.9 °C 34452.6 hPa Calm     93 % 0 mm 0.0 W/m2 CLR
22:20 -18.4 °C -18.9 °C 34452.6 hPa Calm     93 % 0 mm 0.0 W/m2 CLR
22:28 -18.4 °C -18.9 °C 34452.6 hPa Calm     93 % 0 mm 0.0 W/m2 CLR
22:31 -18.4 °C -18.9 °C 34452.6 hPa Calm     93 % 0 mm 0.0 W/m2 CLR
22:36 -18.4 °C -18.9 °C 34452.6 hPa Calm     93 % 0 mm 0.0 W/m2 CLR
22:41 -18.4 °C -18.9 °C 34452.6 hPa West 12.9 km/h 12.9 km/h 93 % 0 mm 0.0 W/m2 CLR
22:47 -18.4 °C -18.9 °C 34452.6 hPa WSW 3.1 km/h   93 % 0 mm 0.0 W/m2 CLR
22:53 -18.4 °C -18.9 °C 34452.6 hPa Calm     93 % 0 mm 0.0 W/m2 CLR
22:55 -18.4 °C -18.9 °C 34452.6 hPa Calm     93 % 0 mm 0.0 W/m2 CLR
23:01 -18.4 °C -18.9 °C 34462.7 hPa Calm     93 % 0 mm 0.0 W/m2 CLR
23:07 -18.4 °C -18.9 °C 34462.7 hPa Calm     93 % 0 mm 0.0 W/m2 CLR
23:13 -18.4 °C -18.9 °C 34462.7 hPa Calm     93 % 0 mm 0.0 W/m2 CLR
23:18 -18.4 °C -18.9 °C 34462.7 hPa Calm     93 % 0 mm 0.0 W/m2 CLR
23:21 -18.4 °C -18.9 °C 34462.7 hPa Calm     93 % 0 mm 0.0 W/m2 CLR
23:23 -18.4 °C -18.9 °C 34462.7 hPa Calm     93 % 0 mm 0.0 W/m2 CLR
23:33 -18.4 °C -18.9 °C 34462.7 hPa Calm     93 % 0 mm 0.0 W/m2 CLR
23:38 -18.4 °C -18.9 °C 34462.7 hPa Calm     93 % 0 mm 0.0 W/m2 CLR
23:44 -18.1 °C -18.7 °C 34476.3 hPa Calm     93 % 0 mm 0.0 W/m2 CLR
23:46 -17.8 °C -18.3 °C 34476.3 hPa Calm     93 % 0 mm 0.0 W/m2 CLR
23:51 -18.1 °C -18.7 °C 34476.3 hPa Calm     93 % 0 mm 0.0 W/m2 CLR
23:53 -18.1 °C -18.7 °C 34476.3 hPa Calm     93 % 0 mm 0.0 W/m2 CLR
23:54 -18.1 °C -18.7 °C 34476.3 hPa Calm     93 % 0 mm 0.0 W/m2 CLR
23:55 -18.1 °C -18.7 °C 34476.3 hPa Calm     93 % 0 mm 0.0 W/m2 CLR
23:56 -18.1 °C -18.7 °C 34476.3 hPa Calm     93 % 0 mm 0.0 W/m2 CLR
23:58 -18.1 °C -18.7 °C 34476.3 hPa Calm     93 % 0 mm 0.0 W/m2 CLR
23:59 -18.1 °C -18.7 °C 34476.3 hPa Calm     93 % 0 mm 0.0 W/m2 CLR
Lo Temps de Massalio
Compliments of Weather Underground - 1 mb